Time;durP1;ratioP1;P1;durP2;ratioP2;P2;SDS_P1;SDS_P2;PMS_P1;PMS_P2;Temp;Humidity;BMP_temperature;BMP_pressure;BME280_temperature;BME280_humidity;BME280_pressure;Samples;Min_cycle;Max_cycle;Signal;HPM_P1;HPM_P2
2023/06/18 00:00:57;;;;;;;14.57;10.60;;;18.00;8.80;;;;;;5025071;28;20471;-70
2023/06/18 00:03:24;;;;;;;18.40;11.13;;;17.90;9.10;;;;;;5025686;28;20513;-70
2023/06/18 00:05:52;;;;;;;15.47;12.37;;;17.80;9.20;;;;;;5044993;28;20459;-70
2023/06/18 00:08:19;;;;;;;12.30;10.60;;;17.80;9.00;;;;;;5046533;28;20459;-70
2023/06/18 00:10:47;;;;;;;16.50;11.43;;;17.70;9.20;;;;;;5023688;28;20498;-69
2023/06/18 00:13:14;;;;;;;15.00;10.70;;;17.70;9.00;;;;;;5023638;28;20900;-70
2023/06/18 00:15:41;;;;;;;18.80;12.13;;;17.70;8.90;;;;;;5025313;28;20474;-70
2023/06/18 00:18:07;;;;;;;13.00;11.23;;;17.70;9.20;;;;;;5024496;28;20474;-70
2023/06/18 00:20:34;;;;;;;15.13;11.70;;;17.70;9.60;;;;;;5022227;28;20837;-69
2023/06/18 00:23:01;;;;;;;16.10;10.03;;;17.60;9.60;;;;;;5021342;28;20487;-70
2023/06/18 00:25:28;;;;;;;15.53;10.90;;;17.60;9.70;;;;;;5021269;28;20467;-70
2023/06/18 00:27:57;;;;;;;13.47;10.70;;;17.50;9.70;;;;;;5024944;28;20463;-70
2023/06/18 00:30:23;;;;;;;12.87;9.97;;;17.50;9.60;;;;;;5023782;28;20462;-70
2023/06/18 00:32:51;;;;;;;14.53;10.63;;;17.50;9.70;;;;;;5027437;28;20495;-70
2023/06/18 00:35:18;;;;;;;22.73;11.97;;;17.50;9.80;;;;;;5024929;28;20545;-70
2023/06/18 00:37:45;;;;;;;16.30;12.57;;;17.50;10.10;;;;;;5017659;28;20474;-70
2023/06/18 00:40:14;;;;;;;13.60;10.93;;;17.50;10.20;;;;;;5027032;28;20583;-70
2023/06/18 00:42:42;;;;;;;22.33;11.87;;;17.50;10.30;;;;;;5024701;28;20533;-70
2023/06/18 00:45:12;;;;;;;14.90;10.77;;;17.50;10.60;;;;;;5019197;28;20908;-70
2023/06/18 00:47:42;;;;;;;13.80;10.93;;;17.50;10.60;;;;;;5019389;28;20529;-70
2023/06/18 00:50:12;;;;;;;16.10;11.80;;;17.50;10.80;;;;;;5024789;28;20506;-70
2023/06/18 00:52:44;;;;;;;13.40;10.70;;;17.40;10.90;;;;;;5025013;28;20565;-71
2023/06/18 00:55:13;;;;;;;15.43;10.47;;;17.50;11.00;;;;;;5021921;28;20528;-70
2023/06/18 00:57:42;;;;;;;13.40;10.90;;;17.50;11.20;;;;;;5025617;28;20524;-70
2023/06/18 01:00:13;;;;;;;14.83;11.53;;;17.40;11.30;;;;;;5028064;28;20498;-70
2023/06/18 01:02:45;;;;;;;12.57;10.37;;;17.40;11.60;;;;;;5022736;28;20570;-70
2023/06/18 01:05:13;;;;;;;15.43;11.70;;;17.40;11.50;;;;;;5017333;28;20602;-70
2023/06/18 01:07:41;;;;;;;15.70;11.40;;;17.30;11.60;;;;;;5018241;28;20470;-71
2023/06/18 01:10:08;;;;;;;14.30;11.63;;;17.30;11.60;;;;;;5023697;28;20474;-69
2023/06/18 01:12:35;;;;;;;16.13;11.53;;;17.20;11.90;;;;;;5024882;28;20489;-71
2023/06/18 01:15:02;;;;;;;14.17;11.37;;;17.20;12.20;;;;;;5020297;28;20463;-70
2023/06/18 01:17:34;;;;;;;15.03;11.97;;;17.10;12.40;;;;;;5026719;28;20455;-70
2023/06/18 01:20:09;;;;;;;17.27;12.10;;;17.00;12.90;;;;;;5023351;28;20509;-71
2023/06/18 01:22:40;;;;;;;13.83;12.33;;;17.00;13.60;;;;;;5023416;28;20485;-70
2023/06/18 01:25:09;;;;;;;14.40;11.93;;;16.90;13.70;;;;;;5024679;28;20470;-70
2023/06/18 01:27:40;;;;;;;13.27;11.87;;;16.80;13.70;;;;;;5024435;28;20482;-70
2023/06/18 01:30:08;;;;;;;16.20;12.80;;;16.80;13.60;;;;;;5022468;28;20636;-70
2023/06/18 01:32:37;;;;;;;14.47;11.57;;;16.60;13.90;;;;;;5025894;28;20483;-70
2023/06/18 01:35:04;;;;;;;16.83;12.60;;;16.60;13.70;;;;;;5025834;28;20474;-70
2023/06/18 01:37:38;;;;;;;14.90;12.83;;;16.50;14.10;;;;;;5024272;28;20469;-70
2023/06/18 01:40:16;;;;;;;15.20;12.93;;;16.50;14.20;;;;;;5021103;28;20836;-70
2023/06/18 01:42:50;;;;;;;16.87;13.63;;;16.40;14.10;;;;;;5026157;28;21045;-70
2023/06/18 01:45:22;;;;;;;16.60;13.20;;;16.50;13.90;;;;;;5028546;28;20470;-71
2023/06/18 01:47:52;;;;;;;19.20;14.33;;;16.50;13.70;;;;;;5028557;28;20458;-70
2023/06/18 01:50:19;;;;;;;16.50;13.33;;;16.40;14.00;;;;;;5025481;28;20473;-70
2023/06/18 01:52:47;;;;;;;15.73;13.00;;;16.40;13.90;;;;;;5028085;28;20494;-69
2023/06/18 01:55:17;;;;;;;18.80;13.57;;;16.40;14.10;;;;;;5032884;28;20473;-70
2023/06/18 01:57:43;;;;;;;16.27;13.47;;;16.40;14.20;;;;;;5028376;28;20466;-69
2023/06/18 02:00:11;;;;;;;15.70;12.00;;;16.30;14.50;;;;;;5027556;28;20466;-70
2023/06/18 02:02:38;;;;;;;15.47;12.97;;;16.30;14.90;;;;;;5022064;28;20491;-70
2023/06/18 02:05:06;;;;;;;15.70;13.50;;;16.20;14.90;;;;;;5019762;28;21022;-70
2023/06/18 02:07:33;;;;;;;14.90;12.93;;;16.20;14.90;;;;;;5024809;28;20462;-70
2023/06/18 02:10:00;;;;;;;17.00;11.90;;;16.10;14.90;;;;;;5030340;28;20853;-70
2023/06/18 02:12:27;;;;;;;14.90;12.30;;;16.10;14.80;;;;;;5026061;28;20486;-70
2023/06/18 02:14:53;;;;;;;17.13;13.30;;;16.10;15.10;;;;;;5029339;28;20467;-70
2023/06/18 02:17:20;;;;;;;15.97;12.73;;;16.00;15.30;;;;;;5020362;28;20829;-71
2023/06/18 02:19:47;;;;;;;16.13;13.13;;;15.90;15.30;;;;;;5022511;28;20475;-71
2023/06/18 02:22:16;;;;;;;18.10;13.40;;;15.90;15.50;;;;;;5023657;28;20707;-71
2023/06/18 02:24:44;;;;;;;16.60;13.13;;;15.90;15.50;;;;;;5029191;28;20465;-71
2023/06/18 02:27:10;;;;;;;16.90;13.33;;;15.80;15.40;;;;;;5023820;28;20468;-71
2023/06/18 02:29:37;;;;;;;16.80;12.77;;;15.90;15.60;;;;;;5025393;28;20495;-70
2023/06/18 02:32:05;;;;;;;14.90;12.23;;;15.80;15.50;;;;;;5024830;28;20472;-70
2023/06/18 02:34:31;;;;;;;15.67;11.23;;;15.80;15.80;;;;;;5026892;28;20951;-71
2023/06/18 02:36:58;;;;;;;15.20;11.73;;;15.80;16.20;;;;;;5028134;28;20473;-70
2023/06/18 02:39:26;;;;;;;14.67;13.03;;;15.70;16.10;;;;;;5027643;28;20467;-71
2023/06/18 02:41:53;;;;;;;18.63;13.30;;;15.70;16.30;;;;;;5024888;28;20483;-70
2023/06/18 02:44:20;;;;;;;19.97;13.20;;;15.60;16.40;;;;;;5024793;28;20467;-70
2023/06/18 02:46:46;;;;;;;18.37;12.00;;;15.50;16.60;;;;;;5025532;28;20495;-69
2023/06/18 02:49:13;;;;;;;15.40;13.33;;;15.50;16.90;;;;;;5025648;28;20981;-70
2023/06/18 02:51:40;;;;;;;16.80;13.53;;;15.40;17.10;;;;;;5028234;28;20493;-70
2023/06/18 02:54:07;;;;;;;15.20;13.07;;;15.40;17.40;;;;;;5027255;28;20510;-71
2023/06/18 02:56:35;;;;;;;20.13;13.77;;;15.30;17.70;;;;;;5029283;28;20471;-70
2023/06/18 02:59:02;;;;;;;15.43;13.20;;;15.20;18.00;;;;;;5026425;28;21075;-70
2023/06/18 03:01:32;;;;;;;16.00;13.50;;;15.20;17.60;;;;;;5020994;28;20561;-70
2023/06/18 03:03:59;;;;;;;16.53;13.80;;;15.30;17.50;;;;;;5026109;28;20482;-69
2023/06/18 03:06:27;;;;;;;16.60;13.90;;;15.30;17.50;;;;;;5021938;28;20470;-70
2023/06/18 03:08:54;;;;;;;16.63;14.17;;;15.30;17.50;;;;;;5028073;28;20525;-69
2023/06/18 03:11:20;;;;;;;16.93;15.13;;;15.30;17.60;;;;;;5026823;28;20952;-71
2023/06/18 03:13:50;;;;;;;18.67;15.47;;;15.30;17.50;;;;;;5037585;28;20497;-70
2023/06/18 03:16:17;;;;;;;16.50;13.93;;;15.30;17.60;;;;;;5054116;28;20477;-69
2023/06/18 03:18:43;;;;;;;16.20;14.00;;;15.30;17.60;;;;;;5043427;28;20466;-70
2023/06/18 03:21:10;;;;;;;18.57;15.17;;;15.40;17.90;;;;;;5026492;28;20870;-71
2023/06/18 03:23:37;;;;;;;14.93;13.20;;;15.40;18.10;;;;;;5022092;28;20517;-70
2023/06/18 03:26:04;;;;;;;15.57;13.23;;;15.40;18.60;;;;;;5024520;28;20470;-71
2023/06/18 03:28:31;;;;;;;18.13;13.63;;;15.40;18.70;;;;;;5025094;28;20478;-70
2023/06/18 03:31:00;;;;;;;16.57;13.37;;;15.40;18.80;;;;;;5024436;28;20466;-71
2023/06/18 03:33:30;;;;;;;20.00;14.43;;;15.50;18.90;;;;;;5020599;28;20507;-70
2023/06/18 03:36:00;;;;;;;18.90;14.57;;;15.50;18.90;;;;;;5024756;28;20989;-69
2023/06/18 03:38:27;;;;;;;16.03;13.67;;;15.50;19.00;;;;;;5022837;28;20835;-70
2023/06/18 03:40:54;;;;;;;18.50;13.90;;;15.50;19.00;;;;;;5025512;28;20498;-70
2023/06/18 03:43:20;;;;;;;15.27;12.80;;;15.50;18.90;;;;;;5023924;28;20475;-71
2023/06/18 03:45:47;;;;;;;16.40;13.40;;;15.60;19.10;;;;;;5024228;28;21056;-71
2023/06/18 03:48:16;;;;;;;19.97;14.40;;;15.60;19.30;;;;;;5025552;28;20814;-70
2023/06/18 03:50:42;;;;;;;16.10;13.13;;;15.60;19.30;;;;;;5024590;28;20471;-70
2023/06/18 03:53:09;;;;;;;18.40;13.60;;;15.60;19.50;;;;;;5024737;28;20490;-71
2023/06/18 03:55:36;;;;;;;19.20;14.63;;;15.60;19.50;;;;;;5022014;28;20481;-70
2023/06/18 03:58:03;;;;;;;17.40;15.60;;;15.50;19.70;;;;;;5019327;28;21015;-71
2023/06/18 04:00:31;;;;;;;18.63;15.67;;;15.60;19.70;;;;;;5022366;28;20558;-70
2023/06/18 04:02:57;;;;;;;19.20;14.80;;;15.50;19.60;;;;;;5020129;28;21010;-70
2023/06/18 04:05:25;;;;;;;18.30;13.10;;;15.50;19.50;;;;;;5020243;28;20964;-71
2023/06/18 04:07:53;;;;;;;18.17;15.10;;;15.50;19.40;;;;;;5025494;28;20467;-70
2023/06/18 04:10:20;;;;;;;18.67;15.47;;;15.60;19.30;;;;;;5022967;28;20459;-70
2023/06/18 04:12:46;;;;;;;16.07;14.30;;;15.60;19.20;;;;;;5024736;28;20917;-69
2023/06/18 04:15:13;;;;;;;17.60;13.60;;;15.70;19.20;;;;;;5023338;28;20467;-70
2023/06/18 04:17:41;;;;;;;16.33;14.00;;;15.70;19.20;;;;;;5024504;28;20463;-70
2023/06/18 04:20:09;;;;;;;17.63;15.70;;;15.80;19.10;;;;;;5025112;28;20470;-69
2023/06/18 04:22:37;;;;;;;16.00;14.10;;;15.80;18.90;;;;;;5024999;28;20483;-69
2023/06/18 04:25:05;;;;;;;16.87;14.43;;;15.90;19.00;;;;;;5020578;28;20470;-70
2023/06/18 04:27:32;;;;;;;14.60;13.10;;;16.00;18.70;;;;;;5020956;28;21219;-71
2023/06/18 04:29:59;;;;;;;19.90;17.20;;;16.10;18.40;;;;;;5025974;28;20463;-69
2023/06/18 04:32:26;;;;;;;17.00;15.30;;;16.20;18.10;;;;;;5024942;28;20483;-69
2023/06/18 04:34:52;;;;;;;17.60;13.50;;;16.60;18.20;;;;;;5025338;28;20501;-70
2023/06/18 04:37:19;;;;;;;20.10;14.53;;;17.50;16.80;;;;;;5026148;28;20459;-70
2023/06/18 04:39:47;;;;;;;18.20;15.00;;;18.50;14.80;;;;;;5026396;28;21009;-70
2023/06/18 04:42:14;;;;;;;15.87;14.17;;;19.50;12.50;;;;;;5025616;28;20484;-70
2023/06/18 04:44:41;;;;;;;15.87;14.13;;;20.20;10.60;;;;;;5022686;28;20473;-71
2023/06/18 04:47:08;;;;;;;16.80;14.47;;;21.00;9.10;;;;;;5023093;28;20493;-70
2023/06/18 04:49:35;;;;;;;15.73;13.97;;;21.60;7.60;;;;;;5020342;28;20467;-71
2023/06/18 04:52:02;;;;;;;15.63;13.43;;;22.30;6.60;;;;;;5026060;28;20896;-70
2023/06/18 04:54:29;;;;;;;14.40;12.90;;;22.80;5.60;;;;;;5020661;28;20937;-70
2023/06/18 04:56:57;;;;;;;16.97;15.17;;;23.20;5.10;;;;;;5024551;28;20458;-70
2023/06/18 04:59:24;;;;;;;16.33;14.63;;;22.90;5.20;;;;;;5020601;28;20481;-70
2023/06/18 05:01:51;;;;;;;16.10;14.40;;;23.00;5.60;;;;;;5024751;28;21794;-71
2023/06/18 05:04:18;;;;;;;17.87;15.60;;;23.70;4.40;;;;;;5021433;28;20909;-71
2023/06/18 05:06:45;;;;;;;18.40;15.47;;;24.40;3.10;;;;;;5023619;28;20527;-70
2023/06/18 05:09:12;;;;;;;17.33;15.57;;;25.00;2.00;;;;;;5023015;28;20482;-70
2023/06/18 05:11:39;;;;;;;19.27;15.50;;;25.60;1.00;;;;;;5024419;28;20463;-70
2023/06/18 05:14:07;;;;;;;16.23;14.53;;;26.10;1.00;;;;;;5022326;28;20486;-71
2023/06/18 05:16:34;;;;;;;16.17;13.93;;;26.70;1.00;;;;;;5020221;28;20467;-71
2023/06/18 05:19:01;;;;;;;16.37;14.73;;;27.30;1.00;;;;;;5027166;28;20495;-71
2023/06/18 05:21:28;;;;;;;18.27;15.30;;;27.80;1.00;;;;;;5025599;28;20470;-70
2023/06/18 05:23:54;;;;;;;16.13;14.53;;;28.40;1.00;;;;;;5036396;28;20960;-70
2023/06/18 05:26:21;;;;;;;16.63;14.17;;;29.10;1.00;;;;;;5030938;28;20474;-71
2023/06/18 05:28:48;;;;;;;15.00;13.37;;;29.70;1.00;;;;;;5024241;28;21248;-71
2023/06/18 05:31:16;;;;;;;15.50;13.90;;;30.60;1.00;;;;;;5022921;28;21034;-71
2023/06/18 05:33:43;;;;;;;14.80;13.30;;;31.30;1.00;;;;;;5026363;28;20494;-71
2023/06/18 05:36:10;;;;;;;14.33;12.47;;;31.90;1.00;;;;;;5024380;28;20490;-72
2023/06/18 05:38:37;;;;;;;14.70;13.20;;;32.50;1.00;;;;;;5027930;28;20983;-71
2023/06/18 05:41:04;;;;;;;13.23;11.93;;;33.00;1.00;;;;;;5025812;28;20463;-71
2023/06/18 05:43:30;;;;;;;14.20;12.70;;;32.80;1.00;;;;;;5027325;28;20510;-70
2023/06/18 05:45:57;;;;;;;14.93;12.33;;;32.10;1.00;;;;;;5023448;28;20959;-71
2023/06/18 05:48:26;;;;;;;19.07;13.53;;;31.50;1.00;;;;;;5026108;28;20891;-71
2023/06/18 05:50:53;;;;;;;14.10;12.60;;;31.20;1.00;;;;;;5029182;28;20467;-71
2023/06/18 05:53:19;;;;;;;15.83;13.17;;;31.40;1.00;;;;;;5025963;28;20505;-71
2023/06/18 05:55:46;;;;;;;15.13;13.47;;;31.80;1.00;;;;;;5029442;28;20462;-70
2023/06/18 05:58:13;;;;;;;16.53;13.33;;;32.00;1.00;;;;;;5026398;28;20490;-70
2023/06/18 06:00:39;;;;;;;15.40;13.93;;;32.10;1.00;;;;;;5024791;28;20463;-70
2023/06/18 06:03:06;;;;;;;14.37;12.97;;;32.30;1.00;;;;;;5019234;28;20486;-70
2023/06/18 06:05:35;;;;;;;16.33;12.47;;;32.70;1.00;;;;;;5028029;28;20466;-71
2023/06/18 06:08:01;;;;;;;13.90;11.83;;;33.40;1.00;;;;;;5029490;28;21243;-70
2023/06/18 06:10:28;;;;;;;13.90;12.50;;;34.30;1.00;;;;;;5026510;28;20987;-71
2023/06/18 06:12:55;;;;;;;12.93;11.73;;;34.90;1.00;;;;;;5026581;28;20861;-70
2023/06/18 06:15:22;;;;;;;14.37;11.67;;;34.90;1.00;;;;;;5026539;28;20463;-71
2023/06/18 06:17:48;;;;;;;16.43;11.67;;;35.00;1.00;;;;;;5024929;28;20466;-70
2023/06/18 06:20:15;;;;;;;15.10;13.33;;;35.50;1.00;;;;;;5029738;28;20478;-71
2023/06/18 06:22:43;;;;;;;12.93;11.73;;;36.40;1.00;;;;;;5029231;28;20479;-71
2023/06/18 06:25:10;;;;;;;14.17;12.40;;;36.80;1.00;;;;;;5044451;28;20470;-71
2023/06/18 06:27:37;;;;;;;12.50;11.30;;;37.30;1.00;;;;;;5051162;28;20471;-71
2023/06/18 06:30:06;;;;;;;13.57;12.23;;;37.80;1.00;;;;;;5026915;28;20494;-71
2023/06/18 06:32:35;;;;;;;14.40;12.50;;;38.40;1.00;;;;;;5025972;28;20479;-71
2023/06/18 06:35:02;;;;;;;13.37;11.97;;;39.10;1.00;;;;;;5027619;28;20469;-71
2023/06/18 06:37:29;;;;;;;13.47;12.07;;;39.60;1.00;;;;;;5026757;28;20467;-72
2023/06/18 06:39:57;;;;;;;12.13;10.87;;;40.00;1.00;;;;;;5029308;28;20463;-71
2023/06/18 06:42:24;;;;;;;12.17;10.93;;;40.10;1.00;;;;;;5027489;28;20521;-71
2023/06/18 06:44:52;;;;;;;12.20;10.77;;;40.90;1.00;;;;;;5021941;28;20459;-72
2023/06/18 06:47:19;;;;;;;11.77;10.50;;;41.30;1.00;;;;;;5026704;28;20469;-71
2023/06/18 06:49:45;;;;;;;11.67;10.53;;;41.80;1.00;;;;;;5026834;28;20898;-72
2023/06/18 06:52:12;;;;;;;10.93;9.93;;;42.50;1.00;;;;;;5028199;28;20522;-72
2023/06/18 06:54:39;;;;;;;13.90;9.80;;;43.20;1.00;;;;;;5025383;28;20475;-71
2023/06/18 06:57:07;;;;;;;11.63;10.43;;;44.20;1.00;;;;;;5025184;28;20465;-71
2023/06/18 06:59:34;;;;;;;11.83;9.70;;;45.00;1.00;;;;;;5025448;28;20472;-72
2023/06/18 07:02:00;;;;;;;10.80;9.70;;;45.40;1.00;;;;;;5023680;28;20487;-72
2023/06/18 07:04:27;;;;;;;10.40;8.87;;;45.50;1.00;;;;;;5026812;28;20456;-71
2023/06/18 07:06:54;;;;;;;9.60;8.60;;;45.90;1.00;;;;;;5022400;28;21023;-72
2023/06/18 07:09:21;;;;;;;9.70;8.70;;;45.70;1.00;;;;;;5025708;28;20473;-71
2023/06/18 07:11:48;;;;;;;9.33;8.33;;;45.70;1.00;;;;;;5022236;28;20536;-71
2023/06/18 07:14:16;;;;;;;13.30;8.27;;;46.00;1.00;;;;;;5026113;28;21014;-71
2023/06/18 07:16:43;;;;;;;9.50;8.50;;;46.30;1.00;;;;;;5025763;28;20996;-70
2023/06/18 07:19:09;;;;;;;10.17;7.63;;;46.70;1.00;;;;;;5025539;28;20456;-70
2023/06/18 07:21:36;;;;;;;12.50;8.37;;;46.80;1.00;;;;;;5022061;28;20573;-70
2023/06/18 07:24:03;;;;;;;8.77;7.57;;;47.30;1.00;;;;;;5026726;28;20466;-71
2023/06/18 07:26:30;;;;;;;10.50;8.53;;;47.90;1.00;;;;;;5023190;28;20466;-71
2023/06/18 07:28:56;;;;;;;8.50;7.60;;;48.30;1.00;;;;;;5024293;28;20472;-71
2023/06/18 07:31:24;;;;;;;11.53;8.30;;;48.50;1.00;;;;;;5022311;28;21026;-71
2023/06/18 07:33:51;;;;;;;8.23;7.43;;;49.00;1.00;;;;;;5024131;28;20483;-70
2023/06/18 07:36:18;;;;;;;9.23;8.20;;;49.40;1.00;;;;;;5021242;28;21480;-71
2023/06/18 07:38:44;;;;;;;10.33;8.30;;;49.40;1.00;;;;;;5026029;28;20546;-70
2023/06/18 07:41:11;;;;;;;10.37;7.70;;;49.40;1.00;;;;;;5021349;28;20475;-71
2023/06/18 07:43:40;;;;;;;7.37;6.37;;;49.80;1.00;;;;;;5023458;28;20487;-71
2023/06/18 07:46:07;;;;;;;8.57;7.13;;;50.30;1.00;;;;;;5024364;28;20478;-71
2023/06/18 07:48:35;;;;;;;11.93;7.37;;;50.10;1.00;;;;;;5024525;28;20467;-71
2023/06/18 07:51:03;;;;;;;9.03;7.40;;;50.20;1.00;;;;;;5023686;28;20973;-71
2023/06/18 07:53:31;;;;;;;7.50;6.70;;;50.70;1.00;;;;;;5019228;28;20487;-71
2023/06/18 07:55:57;;;;;;;8.40;7.23;;;51.20;1.00;;;;;;5022236;28;20471;-71
2023/06/18 07:58:24;;;;;;;8.40;6.90;;;51.70;1.00;;;;;;5019108;28;20474;-71
2023/06/18 08:00:51;;;;;;;7.73;6.83;;;51.80;1.00;;;;;;5023988;28;20470;-71
2023/06/18 08:03:18;;;;;;;11.77;7.60;;;51.60;1.00;;;;;;5021950;28;20486;-71
2023/06/18 08:05:46;;;;;;;8.40;6.67;;;52.10;1.00;;;;;;5023210;28;20467;-71
2023/06/18 08:08:13;;;;;;;10.83;7.93;;;52.10;1.00;;;;;;5019743;28;20471;-71
2023/06/18 08:10:40;;;;;;;10.50;7.07;;;52.30;1.00;;;;;;5024753;28;20572;-71
2023/06/18 08:13:07;;;;;;;9.47;6.83;;;52.30;1.00;;;;;;5022255;28;20489;-70
2023/06/18 08:15:34;;;;;;;9.17;6.67;;;52.20;1.00;;;;;;5023617;28;20458;-71
2023/06/18 08:18:00;;;;;;;8.00;7.20;;;52.30;1.00;;;;;;5021226;28;20458;-71
2023/06/18 08:20:27;;;;;;;8.50;6.27;;;52.90;1.00;;;;;;5023974;28;20844;-71
2023/06/18 08:22:56;;;;;;;7.93;7.00;;;53.20;1.00;;;;;;5021075;28;20513;-72
2023/06/18 08:25:22;;;;;;;8.90;7.20;;;53.60;1.00;;;;;;5021952;28;21175;-71
2023/06/18 08:27:49;;;;;;;7.83;6.40;;;53.90;1.00;;;;;;5024845;28;20470;-71
2023/06/18 08:30:16;;;;;;;7.20;6.13;;;54.00;1.00;;;;;;5024418;28;20470;-71
2023/06/18 08:32:43;;;;;;;7.97;6.77;;;54.20;1.00;;;;;;5021286;28;20489;-71
2023/06/18 08:35:10;;;;;;;6.63;5.90;;;54.60;1.00;;;;;;5022857;28;20581;-71
2023/06/18 08:37:38;;;;;;;7.33;6.13;;;55.10;1.00;;;;;;5022147;28;20542;-71
2023/06/18 08:40:08;;;;;;;7.00;6.20;;;55.70;1.00;;;;;;5021184;28;20514;-72
2023/06/18 08:42:35;;;;;;;8.57;6.90;;;56.30;1.00;;;;;;5023096;28;20519;-72
2023/06/18 08:45:01;;;;;;;8.03;6.60;;;56.60;1.00;;;;;;5021936;28;20219;-72
2023/06/18 08:47:29;;;;;;;7.43;6.13;;;56.70;1.00;;;;;;5023346;28;20199;-72
2023/06/18 08:49:59;;;;;;;8.05;6.00;;;56.60;1.00;;;;;;5022003;28;20298;-71
2023/06/18 08:52:29;;;;;;;6.55;5.95;;;56.30;1.00;;;;;;5021931;28;20278;-71
2023/06/18 08:55:01;;;;;;;7.20;6.50;;;56.50;1.00;;;;;;5020657;28;20251;-71
2023/06/18 08:57:33;;;;;;;7.43;6.05;;;56.30;1.00;;;;;;5022133;28;20207;-71
2023/06/18 09:00:01;;;;;;;6.47;5.57;;;55.90;1.00;;;;;;5008989;28;20215;-71
2023/06/18 09:02:28;;;;;;;5.90;5.17;;;55.30;1.00;;;;;;5007676;28;20232;-71
2023/06/18 09:04:55;;;;;;;6.50;5.80;;;54.70;1.00;;;;;;5015267;28;20202;-71
2023/06/18 09:07:24;;;;;;;6.87;5.83;;;54.10;1.00;;;;;;5017166;28;20509;-69
2023/06/18 09:09:51;;;;;;;7.53;5.30;;;53.70;1.00;;;;;;5012606;28;20516;-71
2023/06/18 09:12:19;;;;;;;6.67;5.80;;;53.40;1.00;;;;;;5022489;28;20486;-71
2023/06/18 09:14:47;;;;;;;6.30;5.70;;;53.50;1.00;;;;;;5011487;28;20602;-71
2023/06/18 09:17:16;;;;;;;6.90;5.93;;;53.60;1.00;;;;;;5020255;28;20467;-75
2023/06/18 09:19:42;;;;;;;6.53;5.60;;;52.90;1.00;;;;;;5018658;28;20478;-73
2023/06/18 09:22:13;;;;;;;7.60;5.67;;;51.50;1.00;;;;;;5021808;28;20799;-72
2023/06/18 09:24:40;;;;;;;7.40;5.63;;;49.30;1.00;;;;;;5021350;28;20691;-74
2023/06/18 09:27:08;;;;;;;9.30;5.70;;;47.10;1.00;;;;;;5024006;28;20470;-72
2023/06/18 09:29:37;;;;;;;6.70;5.83;;;45.00;1.00;;;;;;5020590;28;20970;-73
2023/06/18 09:32:09;;;;;;;9.67;5.70;;;43.20;1.00;;;;;;5025352;28;20471;-71
2023/06/18 09:34:37;;;;;;;7.77;6.10;;;41.70;1.00;;;;;;5027229;28;20484;-72
2023/06/18 09:37:05;;;;;;;6.50;5.33;;;40.60;1.00;;;;;;5049094;28;20505;-72
2023/06/18 09:39:35;;;;;;;8.33;6.40;;;39.40;1.00;;;;;;5039465;28;20532;-71
2023/06/18 09:42:06;;;;;;;8.23;6.33;;;38.40;1.00;;;;;;5026882;28;20475;-70
2023/06/18 09:44:34;;;;;;;8.87;6.50;;;37.50;1.00;;;;;;5021707;28;20463;-71
2023/06/18 09:47:02;;;;;;;9.00;5.97;;;36.50;1.00;;;;;;5023093;28;20553;-72
2023/06/18 09:49:30;;;;;;;8.67;6.00;;;35.70;1.00;;;;;;5019785;28;20550;-71
2023/06/18 09:51:57;;;;;;;10.90;6.33;;;35.30;1.00;;;;;;5021175;28;20486;-71
2023/06/18 09:54:37;;;;;;;6.60;5.27;;;35.00;1.00;;;;;;5026293;28;20474;-72
2023/06/18 09:57:06;;;;;;;11.50;6.17;;;34.60;1.00;;;;;;5020323;28;20466;-72
2023/06/18 09:59:33;;;;;;;8.90;6.07;;;34.30;1.00;;;;;;5022274;28;20474;-71
2023/06/18 10:01:59;;;;;;;7.47;5.70;;;33.90;1.00;;;;;;5020700;28;20859;-71
2023/06/18 10:04:26;;;;;;;8.27;6.23;;;33.70;1.00;;;;;;5024550;28;20463;-71
2023/06/18 10:06:59;;;;;;;11.17;6.50;;;33.20;1.00;;;;;;5028229;28;20987;-71
2023/06/18 10:09:30;;;;;;;8.50;6.73;;;32.80;1.00;;;;;;5024103;28;20455;-71
2023/06/18 10:11:59;;;;;;;13.30;6.00;;;32.70;1.00;;;;;;5023911;28;20501;-72
2023/06/18 10:14:29;;;;;;;8.33;6.30;;;32.50;1.00;;;;;;5026560;28;20487;-71
2023/06/18 10:17:08;;;;;;;9.30;6.00;;;32.30;1.00;;;;;;5027574;28;20467;-72
2023/06/18 10:19:53;;;;;;;9.83;6.70;;;32.20;1.00;;;;;;5023895;28;20474;-71
2023/06/18 10:22:22;;;;;;;9.00;6.73;;;32.00;1.00;;;;;;5016211;28;20479;-72
2023/06/18 10:24:56;;;;;;;10.07;7.00;;;31.80;1.00;;;;;;5022035;28;20482;-72
2023/06/18 10:27:24;;;;;;;9.60;6.47;;;31.80;1.00;;;;;;5025905;28;20474;-71
2023/06/18 10:29:51;;;;;;;9.63;6.63;;;31.90;1.00;;;;;;5028678;28;20460;-71
2023/06/18 10:32:18;;;;;;;10.00;7.07;;;31.70;1.00;;;;;;5028192;28;20467;-72
2023/06/18 10:34:46;;;;;;;8.63;6.10;;;31.50;1.00;;;;;;5021757;28;20491;-72
2023/06/18 10:37:14;;;;;;;10.40;7.27;;;31.30;1.00;;;;;;5030825;28;20459;-73
2023/06/18 10:39:43;;;;;;;8.40;6.30;;;31.30;1.00;;;;;;5024120;28;20459;-71
2023/06/18 10:42:14;;;;;;;8.70;6.27;;;31.30;1.00;;;;;;5027949;28;20483;-71
2023/06/18 10:44:55;;;;;;;8.50;6.80;;;31.40;1.00;;;;;;5020455;28;20467;-71
2023/06/18 10:47:23;;;;;;;10.60;7.20;;;31.40;1.00;;;;;;5025561;28;21007;-70
2023/06/18 10:50:16;;;;;;;8.60;6.90;;;31.50;1.00;;;;;;5022674;28;20467;-72
2023/06/18 10:52:45;;;;;;;10.13;6.93;;;31.50;1.00;;;;;;5026869;28;20526;-71
2023/06/18 10:55:14;;;;;;;12.30;7.77;;;31.50;1.00;;;;;;5028226;28;20490;-72
2023/06/18 10:57:42;;;;;;;8.40;6.67;;;31.30;1.00;;;;;;5021046;28;20463;-71
2023/06/18 11:00:20;;;;;;;8.90;7.00;;;31.10;1.00;;;;;;5024888;28;20570;-70
2023/06/18 11:02:49;;;;;;;8.70;7.40;;;31.10;1.00;;;;;;5019813;28;20471;-71
2023/06/18 11:05:39;;;;;;;8.67;6.33;;;31.00;1.00;;;;;;5023211;28;20946;-71
2023/06/18 11:08:07;;;;;;;8.17;5.63;;;31.00;1.00;;;;;;5026504;28;20545;-72
2023/06/18 11:10:37;;;;;;;11.73;7.90;;;31.00;1.00;;;;;;5023335;28;20478;-71
2023/06/18 11:13:04;;;;;;;8.13;6.90;;;31.00;1.00;;;;;;5022431;28;20885;-71
2023/06/18 11:15:31;;;;;;;8.50;6.37;;;31.10;1.00;;;;;;5016848;28;20498;-71
2023/06/18 11:18:01;;;;;;;8.80;6.90;;;31.00;1.00;;;;;;5025899;28;20460;-72
2023/06/18 11:20:31;;;;;;;7.67;6.53;;;30.80;1.00;;;;;;5023217;28;20459;-72
2023/06/18 11:22:58;;;;;;;11.23;7.00;;;30.70;1.00;;;;;;5023860;28;20486;-70
2023/06/18 11:25:27;;;;;;;8.40;6.30;;;30.70;1.00;;;;;;5025908;28;20790;-70
2023/06/18 11:27:58;;;;;;;8.43;6.80;;;30.80;1.00;;;;;;5024123;28;20965;-70
2023/06/18 11:30:25;;;;;;;10.97;7.90;;;30.80;1.00;;;;;;5023781;28;21087;-70
2023/06/18 11:32:52;;;;;;;8.93;6.77;;;30.70;1.00;;;;;;5027033;28;20487;-71
2023/06/18 11:35:18;;;;;;;11.67;6.90;;;30.60;1.00;;;;;;5027321;28;20490;-70
2023/06/18 11:37:46;;;;;;;8.80;5.97;;;30.50;1.00;;;;;;5029692;28;20463;-70
2023/06/18 11:40:13;;;;;;;8.90;6.60;;;30.50;1.00;;;;;;5022868;28;20466;-71
2023/06/18 11:42:49;;;;;;;8.07;5.90;;;30.50;1.00;;;;;;5026598;28;20485;-71
2023/06/18 11:45:18;;;;;;;8.40;6.80;;;30.50;1.00;;;;;;5023250;28;20463;-70
2023/06/18 11:47:46;;;;;;;10.17;5.60;;;30.60;1.00;;;;;;5019135;28;20470;-69
2023/06/18 11:50:14;;;;;;;9.20;7.00;;;30.40;1.00;;;;;;5023244;28;20462;-70
2023/06/18 11:52:41;;;;;;;8.73;6.50;;;30.40;1.00;;;;;;5018868;28;20498;-72
2023/06/18 11:55:08;;;;;;;8.57;6.60;;;30.40;1.00;;;;;;5017940;28;20494;-70
2023/06/18 11:57:35;;;;;;;8.67;6.97;;;30.40;1.00;;;;;;5016234;28;20471;-70
2023/06/18 12:00:06;;;;;;;8.97;7.10;;;30.40;1.00;;;;;;5019300;28;20464;-69
2023/06/18 12:02:34;;;;;;;8.43;6.87;;;30.30;1.00;;;;;;5024900;28;20470;-70
2023/06/18 12:05:02;;;;;;;7.87;6.70;;;30.30;1.00;;;;;;5017465;28;20460;-69
2023/06/18 12:07:30;;;;;;;8.50;6.40;;;30.30;1.00;;;;;;5021121;28;20906;-69
2023/06/18 12:09:58;;;;;;;8.87;6.53;;;30.30;1.00;;;;;;5022197;28;20478;-69
2023/06/18 12:12:36;;;;;;;8.63;6.87;;;30.20;1.00;;;;;;5020976;28;20487;-69
2023/06/18 12:15:13;;;;;;;9.53;7.10;;;30.10;1.00;;;;;;5019933;28;20483;-69
2023/06/18 12:17:49;;;;;;;9.57;6.50;;;30.00;1.00;;;;;;5022454;28;20474;-69
2023/06/18 12:20:16;;;;;;;8.83;6.50;;;30.10;1.00;;;;;;5015628;28;20472;-70
2023/06/18 12:22:43;;;;;;;9.47;6.70;;;30.00;1.00;;;;;;5022912;28;20505;-70
2023/06/18 12:25:12;;;;;;;8.50;6.37;;;30.10;1.00;;;;;;5019315;28;20498;-70
2023/06/18 12:27:40;;;;;;;9.07;6.60;;;30.10;1.00;;;;;;5020494;28;20558;-69
2023/06/18 12:30:09;;;;;;;9.20;6.60;;;30.10;1.00;;;;;;5020924;28;20809;-69
2023/06/18 12:32:36;;;;;;;8.70;6.13;;;30.20;1.00;;;;;;5019946;28;20606;-70
2023/06/18 12:35:15;;;;;;;8.10;5.50;;;30.20;1.00;;;;;;5021035;28;20486;-70
2023/06/18 12:37:42;;;;;;;7.90;6.60;;;30.20;1.00;;;;;;5021527;28;20494;-69
2023/06/18 12:40:14;;;;;;;10.90;5.93;;;30.20;1.00;;;;;;5019590;28;20473;-70
2023/06/18 12:42:41;;;;;;;7.20;5.80;;;30.30;1.00;;;;;;5025962;28;20529;-70
2023/06/18 12:45:08;;;;;;;12.30;5.33;;;30.30;1.00;;;;;;5032773;28;20462;-69